Strona główna
METAR-TAF:

METAR-TAF

Lotnisko :

Port lotniczy Chartum

Chartum, Sudan

Szerokość geograficzna: 15-36N, Długość geograficzna: 032-33E, wysokość: 382 m

Aktualna obserwacja pogody

Raport powstał 27 minut temu, godzina 06:00 UTC
Wiatr 13 kt od północ
Temperatura 18°C
Wilgotność 30%
Ciśnienie 1019 hPa
Widzialność 10 km lub więcej
Brak chmur poniżej 1500 m i brak chmur cumulonimbus

METAR: HSSS 100600Z 36013KT CAVOK 18/00 Q1019 NOSIG

czas: 09:27 (06:27 UTC)

Prognoza

Raport powstał 7 godziny i 27 minut temu, godzina 23:00 UTC
Prognoza ważna od 10 godzina 00 UTC do 11 godzina 06 UTC
Wiatr 10 kt od północno-północny zachód w porywach dochodzący do 20 kt
Widzialność 10 km lub więcej
Brak chmur poniżej 1500 m i brak chmur cumulonimbus
Przejściowo
od 10 godzina 04 UTC do 10 godzina 08 UTC
Widzialność: 6000 m

TAF: HSSS 092300Z 1000/1106 34010G20KT CAVOK TEMPO 1004/1008 6000

Obserwacja i prognoza pogody dla ponad 4000 lotnisk (raport METAR i TAF).

Dostępne stacje oznaczono żółtymi i czerwonymi punktami na mapie.

Najedź kursorem aby zobaczyć nazwę stacji.

Kliknij aby zobaczyć obserwacje i prognozy pogody.

Aby zmienić mapę: kliknij na zielony przycisk z czarnym krzyżykiem, aby powiększyć; na zielony przycisk z myślnikiem, aby pomniejszyć; na zielone strzałki, aby przejść do map sąsiednich.


METAR-TAF: